createdAt,value
2017-07-03T00:00:02.437Z,1.97
2017-07-03T00:02:29.848Z,2.40
2017-07-03T00:04:57.295Z,2.17
2017-07-03T00:07:24.728Z,2.37
2017-07-03T00:09:52.140Z,2.17
2017-07-03T00:12:19.580Z,2.17
2017-07-03T00:14:47.061Z,2.10
2017-07-03T00:17:14.464Z,2.43
2017-07-03T00:19:41.924Z,2.40
2017-07-03T00:22:09.345Z,2.50
2017-07-03T00:24:36.735Z,2.50
2017-07-03T00:27:04.176Z,3.07
2017-07-03T00:29:31.611Z,2.70
2017-07-03T00:31:59.016Z,2.70
2017-07-03T00:34:26.461Z,2.57
2017-07-03T00:36:53.877Z,2.60
2017-07-03T00:39:21.280Z,2.63
2017-07-03T00:41:48.717Z,2.70
2017-07-03T00:44:16.173Z,2.57
2017-07-03T00:46:43.604Z,2.67
2017-07-03T00:49:11.047Z,2.33
2017-07-03T00:51:38.484Z,2.60
2017-07-03T00:54:05.922Z,2.67
2017-07-03T00:56:33.416Z,2.20
2017-07-03T00:59:00.848Z,2.40
2017-07-03T01:01:28.296Z,2.60
2017-07-03T01:03:55.732Z,2.77
2017-07-03T01:06:23.138Z,2.40
2017-07-03T01:08:50.571Z,2.93
2017-07-03T01:11:18.004Z,2.40
2017-07-03T01:13:45.550Z,2.77
2017-07-03T01:16:13.073Z,2.37
2017-07-03T01:18:40.496Z,2.27
2017-07-03T01:21:07.906Z,2.30
2017-07-03T01:23:35.348Z,1.83
2017-07-03T01:26:02.752Z,2.43
2017-07-03T01:28:30.164Z,2.47
2017-07-03T01:30:57.680Z,2.00
2017-07-03T01:33:25.089Z,1.90
2017-07-03T01:35:52.578Z,2.30
2017-07-03T01:38:19.975Z,2.30
2017-07-03T01:40:48.248Z,2.70
2017-07-03T01:43:15.676Z,2.77
2017-07-03T01:45:43.092Z,2.40
2017-07-03T01:48:10.519Z,2.23
2017-07-03T01:50:37.959Z,2.80
2017-07-03T01:53:05.396Z,2.47
2017-07-03T01:55:33.316Z,2.57
2017-07-03T01:58:00.758Z,2.33
2017-07-03T02:00:28.143Z,2.03
2017-07-03T02:02:55.581Z,2.57
2017-07-03T02:05:22.991Z,2.30
2017-07-03T02:07:50.411Z,2.13
2017-07-03T02:10:17.880Z,2.27
2017-07-03T02:12:45.288Z,2.43
2017-07-03T02:15:12.729Z,2.70
2017-07-03T02:17:40.139Z,2.40
2017-07-03T02:20:07.577Z,2.50
2017-07-03T02:22:35.089Z,2.60
2017-07-03T02:25:02.479Z,2.63
2017-07-03T02:27:29.921Z,2.70
2017-07-03T02:29:57.327Z,2.97
2017-07-03T02:32:24.768Z,2.70
2017-07-03T02:34:52.185Z,2.67
2017-07-03T02:37:19.631Z,3.27
2017-07-03T02:39:47.052Z,3.30
2017-07-03T02:42:14.455Z,2.93
2017-07-03T02:44:41.911Z,3.00
2017-07-03T02:47:09.326Z,2.77
2017-07-03T02:49:36.815Z,3.20
2017-07-03T02:52:04.271Z,2.97
2017-07-03T02:54:31.696Z,3.13
2017-07-03T02:56:59.141Z,3.10
2017-07-03T02:59:26.607Z,3.40
2017-07-03T03:01:54.080Z,2.70
2017-07-03T03:04:21.491Z,3.43
2017-07-03T03:06:48.968Z,2.90
2017-07-03T03:09:16.384Z,3.07
2017-07-03T03:11:43.817Z,3.43
2017-07-03T03:14:11.300Z,2.70
2017-07-03T03:16:38.741Z,2.67
2017-07-03T03:19:06.149Z,3.00
2017-07-03T03:21:33.627Z,3.00
2017-07-03T03:24:01.084Z,3.03
2017-07-03T03:26:28.551Z,2.93
2017-07-03T03:28:55.992Z,3.20
2017-07-03T03:31:23.464Z,3.63
2017-07-03T03:33:50.921Z,3.10
2017-07-03T03:36:18.371Z,3.47
2017-07-03T03:38:45.771Z,3.40
2017-07-03T03:41:13.256Z,3.43
2017-07-03T03:43:40.681Z,2.90
2017-07-03T03:46:08.148Z,4.10
2017-07-03T03:48:35.580Z,3.27
2017-07-03T03:51:03.001Z,3.27
2017-07-03T03:53:30.429Z,3.10
2017-07-03T03:55:57.867Z,3.20
2017-07-03T03:58:25.289Z,3.63
2017-07-03T04:00:52.831Z,3.37
2017-07-03T04:03:20.401Z,2.97
2017-07-03T04:05:47.809Z,3.17
2017-07-03T04:08:15.296Z,3.47
2017-07-03T04:10:42.728Z,3.33
2017-07-03T04:13:10.204Z,3.10
2017-07-03T04:15:37.632Z,3.47
2017-07-03T04:18:05.096Z,3.40
2017-07-03T04:20:32.593Z,3.17
2017-07-03T04:23:00.093Z,3.43
2017-07-03T04:25:27.516Z,3.30
2017-07-03T04:27:54.979Z,3.30
2017-07-03T04:30:22.396Z,3.07
2017-07-03T04:32:49.824Z,2.77
2017-07-03T04:35:17.300Z,2.97
2017-07-03T04:37:44.839Z,3.23
2017-07-03T04:40:12.303Z,3.60
2017-07-03T04:42:39.752Z,3.43
2017-07-03T04:45:07.174Z,3.33
2017-07-03T04:47:34.584Z,2.93
2017-07-03T04:50:02.024Z,3.00
2017-07-03T04:52:29.433Z,3.13
2017-07-03T04:54:57.056Z,3.40
2017-07-03T04:57:24.832Z,3.80
2017-07-03T04:59:52.327Z,3.90
2017-07-03T05:02:19.746Z,3.33
2017-07-03T05:04:47.149Z,3.30
2017-07-03T05:07:14.699Z,3.27
2017-07-03T05:09:42.104Z,3.40
2017-07-03T05:12:09.557Z,3.37
2017-07-03T05:14:36.989Z,3.50
2017-07-03T05:17:04.386Z,3.17
2017-07-03T05:19:32.046Z,3.50
2017-07-03T05:21:59.775Z,3.40
2017-07-03T05:24:27.180Z,3.30
2017-07-03T05:26:54.588Z,3.57
2017-07-03T05:29:22.032Z,3.57
2017-07-03T05:31:49.497Z,3.43
2017-07-03T05:34:16.912Z,3.50
2017-07-03T05:36:44.348Z,3.30
2017-07-03T05:39:11.895Z,3.50
2017-07-03T05:41:39.331Z,4.23
2017-07-03T05:44:12.271Z,3.93
2017-07-03T05:46:39.692Z,3.77
2017-07-03T05:49:07.127Z,3.33
2017-07-03T05:51:34.557Z,3.43
2017-07-03T05:54:02.040Z,3.20
2017-07-03T05:56:30.233Z,3.53
2017-07-03T05:58:57.667Z,3.57
2017-07-03T06:01:25.089Z,3.27
2017-07-03T06:03:52.517Z,3.47
2017-07-03T06:06:20.090Z,3.53
2017-07-03T06:08:47.504Z,3.40
2017-07-03T06:11:14.989Z,3.47
2017-07-03T06:13:42.440Z,3.33
2017-07-03T06:16:09.880Z,3.20
2017-07-03T06:18:37.284Z,3.93
2017-07-03T06:21:04.730Z,3.50
2017-07-03T06:23:32.136Z,4.03
2017-07-03T06:25:59.578Z,3.57
2017-07-03T06:28:27.011Z,3.17
2017-07-03T06:30:54.418Z,3.97
2017-07-03T06:33:21.868Z,3.43
2017-07-03T06:35:49.375Z,3.30
2017-07-03T06:38:17.157Z,3.53
2017-07-03T06:40:44.586Z,3.60
2017-07-03T06:43:12.002Z,3.30
2017-07-03T06:45:39.454Z,3.43
2017-07-03T06:48:06.859Z,3.60
2017-07-03T06:50:34.300Z,3.13
2017-07-03T06:53:01.748Z,3.53
2017-07-03T06:55:29.164Z,3.93
2017-07-03T06:57:56.615Z,3.03
2017-07-03T07:00:24.024Z,3.20
2017-07-03T07:02:51.454Z,3.13
2017-07-03T07:05:18.879Z,3.37
2017-07-03T07:07:46.293Z,3.03
2017-07-03T07:10:13.740Z,3.20
2017-07-03T07:12:41.152Z,3.30
2017-07-03T07:15:08.571Z,3.10
2017-07-03T07:17:36.019Z,2.83
2017-07-03T07:20:03.428Z,3.20
2017-07-03T07:22:30.875Z,3.10
2017-07-03T07:24:58.296Z,2.80
2017-07-03T07:27:25.703Z,3.67
2017-07-03T07:29:53.138Z,3.80
2017-07-03T07:32:20.544Z,3.23
2017-07-03T07:34:48.019Z,4.10
2017-07-03T07:37:15.428Z,2.77
2017-07-03T07:39:42.858Z,3.30
2017-07-03T07:42:10.406Z,3.40
2017-07-03T07:44:37.833Z,3.23
2017-07-03T07:47:05.247Z,3.80
2017-07-03T07:49:32.728Z,3.10
2017-07-03T07:52:00.176Z,3.53
2017-07-03T07:54:27.679Z,2.80
2017-07-03T07:56:55.084Z,3.07
2017-07-03T07:59:22.542Z,2.77
2017-07-03T08:01:49.959Z,2.87
2017-07-03T08:04:17.365Z,2.97
2017-07-03T08:06:44.816Z,2.70
2017-07-03T08:09:12.832Z,2.83
2017-07-03T08:11:40.344Z,2.93
2017-07-03T08:14:07.801Z,2.93
2017-07-03T08:16:35.223Z,2.90
2017-07-03T08:19:02.771Z,2.93
2017-07-03T08:21:30.195Z,3.10
2017-07-03T08:23:57.619Z,3.00
2017-07-03T08:26:25.103Z,3.00
2017-07-03T08:28:52.624Z,2.70
2017-07-03T08:31:20.063Z,2.90
2017-07-03T08:33:47.498Z,2.70
2017-07-03T08:36:14.959Z,2.77
2017-07-03T08:38:42.412Z,3.20
2017-07-03T08:41:09.892Z,2.50
2017-07-03T08:43:37.327Z,2.40
2017-07-03T08:46:04.739Z,2.83
2017-07-03T08:48:32.202Z,2.43
2017-07-03T08:50:59.602Z,2.70
2017-07-03T08:53:27.016Z,2.87
2017-07-03T08:55:54.464Z,2.90
2017-07-03T08:58:21.882Z,3.00
2017-07-03T09:00:49.340Z,3.00
2017-07-03T09:03:16.763Z,3.20
2017-07-03T09:05:44.173Z,3.00
2017-07-03T09:08:11.670Z,2.80
2017-07-03T09:10:39.079Z,3.43
2017-07-03T09:13:06.531Z,3.27
2017-07-03T09:15:33.967Z,3.10
2017-07-03T09:18:01.384Z,2.43
2017-07-03T09:20:28.835Z,2.60
2017-07-03T09:22:56.269Z,2.70
2017-07-03T09:25:23.703Z,2.63
2017-07-03T09:27:51.108Z,2.87
2017-07-03T09:30:18.543Z,2.23
2017-07-03T09:32:45.988Z,2.40
2017-07-03T09:35:13.416Z,2.63
2017-07-03T09:37:40.843Z,2.60
2017-07-03T09:40:08.385Z,2.80
2017-07-03T09:42:35.899Z,2.80
2017-07-03T09:45:03.383Z,2.83
2017-07-03T09:47:31.407Z,2.60
2017-07-03T09:49:59.485Z,2.97
2017-07-03T09:52:26.961Z,2.67
2017-07-03T09:54:54.381Z,2.77
2017-07-03T09:57:21.840Z,10.43
2017-07-03T09:59:49.255Z,2.73
2017-07-03T10:02:16.668Z,2.70
2017-07-03T10:04:44.253Z,2.30
2017-07-03T10:07:12.517Z,2.50
2017-07-03T10:09:40.009Z,2.40
2017-07-03T10:12:07.416Z,2.57
2017-07-03T10:14:34.835Z,2.90
2017-07-03T10:17:02.387Z,3.17
2017-07-03T10:19:29.931Z,2.50
2017-07-03T10:21:57.400Z,2.80
2017-07-03T10:24:24.835Z,2.43
2017-07-03T10:26:52.267Z,2.30
2017-07-03T10:29:19.680Z,2.20
2017-07-03T10:31:47.138Z,2.43
2017-07-03T10:34:14.550Z,1.93
2017-07-03T10:36:42.021Z,2.20
2017-07-03T10:39:09.545Z,2.40
2017-07-03T10:41:36.949Z,2.30
2017-07-03T10:44:04.363Z,2.00
2017-07-03T10:46:31.851Z,2.10
2017-07-03T10:48:59.244Z,2.50
2017-07-03T10:51:26.687Z,2.30
2017-07-03T10:53:54.164Z,2.30
2017-07-03T10:56:21.580Z,2.17
2017-07-03T10:58:49.025Z,2.30
2017-07-03T11:01:16.425Z,2.20
2017-07-03T11:03:43.857Z,2.20
2017-07-03T11:06:11.305Z,2.30
2017-07-03T11:08:38.757Z,2.20
2017-07-03T11:11:06.284Z,1.83
2017-07-03T11:13:33.724Z,2.63
2017-07-03T11:16:01.136Z,1.90
2017-07-03T11:18:28.540Z,2.03
2017-07-03T11:20:55.988Z,2.00
2017-07-03T11:23:23.404Z,2.00
2017-07-03T11:25:50.866Z,2.20
2017-07-03T11:28:18.427Z,2.27
2017-07-03T11:30:45.948Z,2.60
2017-07-03T11:33:13.364Z,2.33
2017-07-03T11:35:40.764Z,2.43
2017-07-03T11:38:08.241Z,2.20
2017-07-03T11:40:35.809Z,2.07
2017-07-03T11:43:03.223Z,2.40
2017-07-03T11:45:30.652Z,2.10
2017-07-03T11:47:58.184Z,2.50
2017-07-03T11:50:25.960Z,2.00
2017-07-03T11:52:53.385Z,1.90
2017-07-03T11:55:20.835Z,1.90
2017-07-03T11:57:48.295Z,1.80
2017-07-03T12:00:15.711Z,1.83
2017-07-03T12:02:43.190Z,2.00
2017-07-03T12:05:10.582Z,2.00
2017-07-03T12:07:38.006Z,1.67
2017-07-03T12:10:05.524Z,1.77
2017-07-03T12:12:32.943Z,1.87
2017-07-03T12:15:00.418Z,1.50
2017-07-03T12:17:27.848Z,1.90
2017-07-03T12:19:55.268Z,1.90
2017-07-03T12:22:22.745Z,1.80
2017-07-03T12:24:50.192Z,2.13
2017-07-03T12:27:17.705Z,1.87
2017-07-03T12:29:45.137Z,1.80
2017-07-03T12:32:12.577Z,1.53
2017-07-03T12:34:39.996Z,1.90
2017-07-03T12:37:07.409Z,1.70
2017-07-03T12:39:34.968Z,1.60
2017-07-03T12:42:02.413Z,1.83
2017-07-03T12:44:29.911Z,1.73
2017-07-03T12:46:57.444Z,1.50
2017-07-03T12:49:24.906Z,1.80
2017-07-03T12:51:52.335Z,1.47
2017-07-03T12:54:19.749Z,1.40
2017-07-03T12:56:47.185Z,1.30
2017-07-03T12:59:14.680Z,1.80
2017-07-03T13:01:42.127Z,1.60
2017-07-03T13:04:09.637Z,1.20
2017-07-03T13:06:37.122Z,1.70
2017-07-03T13:09:04.551Z,1.53
2017-07-03T13:11:32.009Z,1.57
2017-07-03T13:13:59.457Z,1.97
2017-07-03T13:16:26.939Z,1.40
2017-07-03T13:18:54.372Z,1.50
2017-07-03T13:21:21.777Z,1.60
2017-07-03T13:23:49.305Z,1.40
2017-07-03T13:26:16.723Z,1.70
2017-07-03T13:28:44.147Z,1.80
2017-07-03T13:31:11.570Z,1.43
2017-07-03T13:33:39.040Z,1.60
2017-07-03T13:36:06.479Z,1.60
2017-07-03T13:38:33.902Z,1.70
2017-07-03T13:41:01.394Z,1.60
2017-07-03T13:43:28.801Z,1.97
2017-07-03T13:45:56.252Z,1.20
2017-07-03T13:48:23.664Z,1.80
2017-07-03T13:50:51.113Z,1.80
2017-07-03T13:53:18.532Z,1.40
2017-07-03T13:55:45.995Z,1.77
2017-07-03T13:58:13.624Z,1.90
2017-07-03T14:00:41.142Z,2.07
2017-07-03T14:03:08.575Z,1.70
2017-07-03T14:05:36.052Z,1.80
2017-07-03T14:08:03.468Z,2.00
2017-07-03T14:10:31.124Z,1.70
2017-07-03T14:12:58.576Z,1.90
2017-07-03T14:15:26.029Z,1.70
2017-07-03T14:17:53.432Z,1.63
2017-07-03T14:20:20.915Z,1.63
2017-07-03T14:22:48.372Z,1.70
2017-07-03T14:25:15.764Z,1.90
2017-07-03T14:27:43.173Z,2.27
2017-07-03T14:30:10.629Z,1.93
2017-07-03T14:32:38.069Z,1.83
2017-07-03T14:35:05.518Z,2.10
2017-07-03T14:37:33.056Z,1.87
2017-07-03T14:40:00.484Z,1.80
2017-07-03T14:42:27.933Z,1.63
2017-07-03T14:44:55.363Z,1.90
2017-07-03T14:47:22.808Z,1.60
2017-07-03T14:49:50.248Z,1.77
2017-07-03T14:52:17.677Z,1.67
2017-07-03T14:54:45.225Z,2.37
2017-07-03T14:57:12.788Z,1.77
2017-07-03T14:59:40.197Z,2.30
2017-07-03T15:02:07.636Z,2.03
2017-07-03T15:04:35.049Z,1.90
2017-07-03T15:07:02.521Z,1.93
2017-07-03T15:09:29.965Z,1.97
2017-07-03T15:11:57.423Z,1.40
2017-07-03T15:14:24.974Z,1.80
2017-07-03T15:16:52.384Z,1.80
2017-07-03T15:19:19.911Z,1.93
2017-07-03T15:21:47.398Z,1.80
2017-07-03T15:24:14.797Z,2.20
2017-07-03T15:26:42.251Z,1.90
2017-07-03T15:29:09.741Z,2.03
2017-07-03T15:31:37.224Z,2.00
2017-07-03T15:34:04.732Z,2.23
2017-07-03T15:36:32.162Z,1.90
2017-07-03T15:39:00.229Z,1.80
2017-07-03T15:41:27.636Z,1.90
2017-07-03T15:43:55.063Z,1.90
2017-07-03T15:46:22.549Z,1.80
2017-07-03T15:48:49.956Z,2.10
2017-07-03T15:51:17.433Z,2.00
2017-07-03T15:53:44.902Z,1.90
2017-07-03T15:56:12.305Z,1.70
2017-07-03T15:58:39.773Z,1.80
2017-07-03T16:01:07.220Z,2.00
2017-07-03T16:03:34.642Z,1.77
2017-07-03T16:06:02.100Z,2.07
2017-07-03T16:08:29.528Z,1.70
2017-07-03T16:10:56.964Z,1.80
2017-07-03T16:13:24.455Z,1.80
2017-07-03T16:15:51.825Z,2.00
2017-07-03T16:18:19.309Z,2.17
2017-07-03T16:20:46.708Z,2.00
2017-07-03T16:23:14.132Z,2.13
2017-07-03T16:25:41.641Z,2.23
2017-07-03T16:28:09.037Z,2.40
2017-07-03T16:30:36.507Z,2.20
2017-07-03T16:33:03.948Z,1.90
2017-07-03T16:35:42.997Z,2.10
2017-07-03T16:38:10.535Z,2.20
2017-07-03T16:40:38.005Z,2.20
2017-07-03T16:43:05.892Z,2.20
2017-07-03T16:45:42.067Z,2.00
2017-07-03T16:51:00.772Z,2.30
2017-07-03T16:53:29.943Z,2.23
2017-07-03T16:55:59.234Z,1.80
2017-07-03T16:58:29.658Z,2.27
2017-07-03T17:00:58.704Z,2.13
2017-07-03T17:03:26.229Z,2.20
2017-07-03T17:05:55.065Z,2.07
2017-07-03T17:08:23.302Z,2.20
2017-07-03T17:10:50.772Z,2.10
2017-07-03T17:13:18.200Z,2.33
2017-07-03T17:15:46.679Z,2.20
2017-07-03T17:18:15.448Z,2.00
2017-07-03T17:20:44.694Z,2.23
2017-07-03T17:23:13.659Z,2.40
2017-07-03T17:25:42.352Z,2.50
2017-07-03T17:28:09.785Z,2.00
2017-07-03T17:30:38.874Z,2.43
2017-07-03T17:33:08.151Z,2.43
2017-07-03T17:35:35.565Z,2.27
2017-07-03T17:38:04.556Z,2.50
2017-07-03T17:40:34.301Z,2.73
2017-07-03T17:43:01.794Z,2.90
2017-07-03T17:45:30.222Z,2.57
2017-07-03T17:47:58.126Z,2.70
2017-07-03T17:50:25.575Z,2.33
2017-07-03T17:52:53.017Z,3.50
2017-07-03T17:55:21.387Z,2.80
2017-07-03T17:57:50.542Z,2.57
2017-07-03T18:00:18.951Z,2.27
2017-07-03T18:02:48.375Z,2.93
2017-07-03T18:05:16.096Z,2.43
2017-07-03T18:07:43.555Z,2.87
2017-07-03T18:10:11.091Z,2.50
2017-07-03T18:12:39.926Z,2.40
2017-07-03T18:15:07.545Z,2.47
2017-07-03T18:17:35.765Z,2.40
2017-07-03T18:20:05.031Z,2.33
2017-07-03T18:22:32.929Z,2.90
2017-07-03T18:25:03.363Z,3.00
2017-07-03T18:27:32.474Z,2.90
2017-07-03T18:30:01.370Z,2.70
2017-07-03T18:32:30.330Z,3.10
2017-07-03T18:34:59.973Z,3.10
2017-07-03T18:37:29.009Z,3.43
2017-07-03T18:39:58.349Z,2.57
2017-07-03T18:42:27.723Z,2.80
2017-07-03T18:44:56.072Z,3.20
2017-07-03T18:47:25.262Z,3.03
2017-07-03T18:49:54.351Z,3.07
2017-07-03T18:52:23.018Z,3.67
2017-07-03T18:54:52.278Z,3.60
2017-07-03T18:57:19.705Z,8.30
2017-07-03T18:59:47.252Z,4.50
2017-07-03T19:02:14.714Z,5.23
2017-07-03T19:04:44.830Z,6.27
2017-07-03T19:07:12.265Z,3.40
2017-07-03T19:09:40.615Z,3.37
2017-07-03T19:12:08.048Z,3.33
2017-07-03T19:14:35.506Z,3.27
2017-07-03T19:17:03.235Z,3.27
2017-07-03T19:19:32.227Z,3.27
2017-07-03T19:22:00.210Z,3.83
2017-07-03T19:24:27.867Z,3.40
2017-07-03T19:26:55.372Z,3.80
2017-07-03T19:29:24.467Z,3.77
2017-07-03T19:31:54.043Z,3.90
2017-07-03T19:34:24.095Z,4.10
2017-07-03T19:36:51.606Z,4.87
2017-07-03T19:39:19.078Z,4.10
2017-07-03T19:41:48.099Z,3.67
2017-07-03T19:44:16.609Z,3.40
2017-07-03T19:46:44.817Z,3.00
2017-07-03T19:49:12.291Z,3.60
2017-07-03T19:51:39.740Z,3.20
2017-07-03T19:54:07.208Z,3.40
2017-07-03T19:56:34.648Z,3.00
2017-07-03T19:59:03.330Z,3.33
2017-07-03T20:01:32.732Z,3.20
2017-07-03T20:04:02.279Z,3.23
2017-07-03T20:06:31.232Z,3.23
2017-07-03T20:09:01.325Z,3.07
2017-07-03T20:11:30.692Z,3.60
2017-07-03T20:13:59.800Z,3.53
2017-07-03T20:16:28.481Z,4.00
2017-07-03T20:18:56.592Z,3.70
2017-07-03T20:21:25.495Z,3.90
2017-07-03T20:23:55.105Z,3.70
2017-07-03T20:26:24.358Z,3.70
2017-07-03T20:28:51.823Z,3.57
2017-07-03T20:31:19.225Z,3.53
2017-07-03T20:33:46.633Z,3.00
2017-07-03T20:36:14.067Z,4.10
2017-07-03T20:38:41.509Z,4.40
2017-07-03T20:41:10.801Z,6.20
2017-07-03T20:43:38.439Z,5.20
2017-07-03T20:46:05.861Z,3.57
2017-07-03T20:48:33.295Z,3.97
2017-07-03T20:51:00.754Z,3.80
2017-07-03T20:53:28.163Z,3.73
2017-07-03T20:55:55.594Z,3.60
2017-07-03T20:58:23.010Z,3.77
2017-07-03T21:00:50.458Z,3.83
2017-07-03T21:03:17.939Z,4.27
2017-07-03T21:05:45.407Z,3.80
2017-07-03T21:08:13.074Z,3.30
2017-07-03T21:10:40.492Z,3.77
2017-07-03T21:13:07.995Z,3.90
2017-07-03T21:15:35.410Z,3.27
2017-07-03T21:18:02.997Z,4.07
2017-07-03T21:20:30.456Z,3.03
2017-07-03T21:22:57.892Z,3.80
2017-07-03T21:25:25.484Z,3.57
2017-07-03T21:27:52.923Z,3.37
2017-07-03T21:30:22.166Z,3.43
2017-07-03T21:32:49.605Z,3.70
2017-07-03T21:35:17.092Z,3.20
2017-07-03T21:37:44.553Z,3.27
2017-07-03T21:40:11.997Z,4.00
2017-07-03T21:42:39.429Z,3.10
2017-07-03T21:45:06.888Z,3.77
2017-07-03T21:47:34.308Z,4.17
2017-07-03T21:50:01.742Z,3.50
2017-07-03T21:52:29.421Z,3.40
2017-07-03T21:54:56.834Z,3.33
2017-07-03T21:57:24.340Z,3.80
2017-07-03T21:59:51.767Z,3.70
2017-07-03T22:02:19.179Z,3.47
2017-07-03T22:04:46.632Z,3.40
2017-07-03T22:07:16.561Z,3.23
2017-07-03T22:09:43.988Z,3.40
2017-07-03T22:12:11.424Z,3.60
2017-07-03T22:14:38.820Z,3.47
2017-07-03T22:17:06.424Z,3.50
2017-07-03T22:19:35.186Z,3.80
2017-07-03T22:22:02.624Z,4.10
2017-07-03T22:24:30.047Z,4.30
2017-07-03T22:26:57.531Z,3.60
2017-07-03T22:29:24.981Z,3.70
2017-07-03T22:31:52.395Z,3.23
2017-07-03T22:34:21.740Z,3.67
2017-07-03T22:36:49.535Z,3.93
2017-07-03T22:39:17.319Z,3.40
2017-07-03T22:41:46.882Z,3.43
2017-07-03T22:44:15.894Z,3.23
2017-07-03T22:46:45.455Z,4.00
2017-07-03T22:49:14.711Z,3.73
2017-07-03T22:51:44.163Z,3.60
2017-07-03T22:54:13.461Z,3.30
2017-07-03T22:56:42.967Z,3.60
2017-07-03T22:59:10.398Z,3.50
2017-07-03T23:01:37.827Z,3.70
2017-07-03T23:04:05.275Z,3.53
2017-07-03T23:06:32.687Z,3.37
2017-07-03T23:09:01.901Z,4.23
2017-07-03T23:11:29.860Z,3.33
2017-07-03T23:13:57.352Z,3.87
2017-07-03T23:16:24.850Z,4.07
2017-07-03T23:18:52.313Z,4.00
2017-07-03T23:21:20.370Z,3.87
2017-07-03T23:23:47.792Z,3.90
2017-07-03T23:26:15.219Z,3.63
2017-07-03T23:28:44.405Z,4.00
2017-07-03T23:31:11.837Z,3.43
2017-07-03T23:33:39.461Z,4.00
2017-07-03T23:36:06.890Z,3.87
2017-07-03T23:38:34.408Z,3.80
2017-07-03T23:41:01.828Z,4.03
2017-07-03T23:43:29.238Z,3.67
2017-07-03T23:45:57.172Z,3.40
2017-07-03T23:48:24.590Z,3.30
2017-07-03T23:50:53.014Z,3.77
2017-07-03T23:53:20.436Z,3.80
2017-07-03T23:55:47.896Z,3.77
2017-07-03T23:58:15.958Z,3.90
